Terminal Aerodrome Forecast
Issued by NWS Upton, NY

Current Version | Previous Version | Text Only | Print | Product List | Glossary On
Versions: 1 2 3 4 5 6 7 8 9 10 11 12 13 14 15 16 17 18 19 20 21 22 23 24 25 26 27 28 29 30 31 32 33 34 35 36
023 FTUS41 KOKX 301724 TAFJFK TAF KJFK 301724Z 3018/3124 19007KT P6SM FEW060 BKN150 FM310600 15006KT P6SM BKN050 FM311000 11010KT 5SM -RA BKN010 FM311500 11014G20KT 2SM -RA OVC005 FM311800 09020G28KT 2SM RA OVC004=

USA.gov is the U.S. government's official web portal to all federal, state and local government web resources and services.